createdAt,value
2016-10-11T00:01:39.971Z,1025.57
2016-10-11T00:06:39.915Z,1025.57
2016-10-11T00:11:39.857Z,1025.58
2016-10-11T00:16:39.803Z,1025.57
2016-10-11T00:21:39.747Z,1025.55
2016-10-11T00:26:39.689Z,1025.52
2016-10-11T00:31:39.633Z,1025.52
2016-10-11T00:36:39.577Z,1025.5
2016-10-11T00:41:39.521Z,1025.49
2016-10-11T00:46:39.463Z,1025.46
2016-10-11T00:51:39.407Z,1025.45
2016-10-11T00:56:39.352Z,1025.39
2016-10-11T01:01:39.295Z,1025.36
2016-10-11T01:06:39.236Z,1025.28
2016-10-11T01:11:39.182Z,1025.26
2016-10-11T01:16:39.124Z,1025.29
2016-10-11T01:21:39.067Z,1025.21
2016-10-11T01:26:39.007Z,1025.16
2016-10-11T01:31:38.952Z,1025.12
2016-10-11T01:36:38.894Z,1025.12
2016-10-11T01:41:38.838Z,1025.18
2016-10-11T01:46:38.782Z,1025.14
2016-10-11T01:51:38.722Z,1025.15
2016-10-11T01:56:38.667Z,1025.1
2016-10-11T02:01:38.608Z,1025.12
2016-10-11T02:06:38.550Z,1025.04
2016-10-11T02:11:38.494Z,1025.07
2016-10-11T02:16:38.437Z,1025
2016-10-11T02:21:38.380Z,1024.91
2016-10-11T02:26:38.323Z,1024.89
2016-10-11T02:31:38.263Z,1024.87
2016-10-11T02:36:38.209Z,1024.83
2016-10-11T02:41:38.146Z,1024.78
2016-10-11T02:46:38.089Z,1024.72
2016-10-11T02:51:38.031Z,1024.74
2016-10-11T02:56:37.971Z,1024.68
2016-10-11T03:01:37.913Z,1024.7
2016-10-11T03:06:37.855Z,1024.68
2016-10-11T03:11:37.796Z,1024.65
2016-10-11T03:16:37.737Z,1024.6
2016-10-11T03:21:37.677Z,1024.58
2016-10-11T03:26:37.617Z,1024.62
2016-10-11T03:31:37.559Z,1024.64
2016-10-11T03:36:37.509Z,1024.62
2016-10-11T03:41:37.441Z,1024.6
2016-10-11T03:46:37.379Z,1024.64
2016-10-11T03:51:37.318Z,1024.58
2016-10-11T03:56:37.258Z,1024.55
2016-10-11T04:01:37.200Z,1024.51
2016-10-11T04:06:37.138Z,1024.44
2016-10-11T04:11:37.085Z,1024.45
2016-10-11T04:16:37.018Z,1024.45
2016-10-11T04:21:36.960Z,1024.41
2016-10-11T04:26:36.897Z,1024.39
2016-10-11T04:31:36.837Z,1024.38
2016-10-11T04:36:36.780Z,1024.33
2016-10-11T04:41:36.718Z,1024.34
2016-10-11T04:46:36.657Z,1024.29
2016-10-11T04:51:36.595Z,1024.28
2016-10-11T04:56:36.535Z,1024.32
2016-10-11T05:01:36.473Z,1024.34
2016-10-11T05:06:36.415Z,1024.34
2016-10-11T05:11:36.355Z,1024.29
2016-10-11T05:16:36.297Z,1024.36
2016-10-11T05:21:36.234Z,1024.37
2016-10-11T05:26:36.177Z,1024.4
2016-10-11T05:31:36.116Z,1024.34
2016-10-11T05:36:36.058Z,1024.33
2016-10-11T05:41:36.000Z,1024.36
2016-10-11T05:46:35.940Z,1024.34
2016-10-11T05:51:35.884Z,1024.3
2016-10-11T05:56:35.826Z,1024.29
2016-10-11T06:01:35.768Z,1024.33
2016-10-11T06:06:35.710Z,1024.34
2016-10-11T06:11:35.653Z,1024.34
2016-10-11T06:16:35.596Z,1024.37
2016-10-11T06:21:35.552Z,1024.34
2016-10-11T06:26:35.481Z,1024.33
2016-10-11T06:31:35.427Z,1024.31
2016-10-11T06:36:35.367Z,1024.34
2016-10-11T06:41:35.311Z,1024.34
2016-10-11T06:46:35.256Z,1024.29
2016-10-11T06:51:35.197Z,1024.29
2016-10-11T06:56:35.139Z,1024.32
2016-10-11T07:01:35.083Z,1024.31
2016-10-11T07:06:35.027Z,1024.31
2016-10-11T07:11:34.971Z,1024.33
2016-10-11T07:16:34.910Z,1024.32
2016-10-11T07:21:34.854Z,1024.37
2016-10-11T07:26:34.797Z,1024.38
2016-10-11T07:31:34.740Z,1024.41
2016-10-11T07:36:34.688Z,1024.43
2016-10-11T07:41:34.633Z,1024.43
2016-10-11T07:46:34.568Z,1024.47
2016-10-11T07:51:34.512Z,1024.48
2016-10-11T07:56:34.457Z,1024.48
2016-10-11T08:01:34.405Z,1024.5
2016-10-11T08:06:34.343Z,1024.49
2016-10-11T08:11:34.287Z,1024.47
2016-10-11T08:16:34.231Z,1024.44
2016-10-11T08:21:34.174Z,1024.37
2016-10-11T08:26:34.117Z,1024.41
2016-10-11T08:31:34.059Z,1024.37
2016-10-11T08:36:34.003Z,1024.37
2016-10-11T08:41:33.948Z,1024.32
2016-10-11T08:46:33.887Z,1024.28
2016-10-11T08:51:33.829Z,1024.28
2016-10-11T08:56:33.773Z,1024.3
2016-10-11T09:01:33.719Z,1024.32
2016-10-11T09:06:33.661Z,1024.35
2016-10-11T09:11:33.602Z,1024.33
2016-10-11T09:16:33.544Z,1024.31
2016-10-11T09:21:33.488Z,1024.32
2016-10-11T09:26:33.434Z,1024.38
2016-10-11T09:31:33.376Z,1024.33
2016-10-11T09:36:33.315Z,1024.34
2016-10-11T09:41:33.259Z,1024.39
2016-10-11T09:46:33.204Z,1024.47
2016-10-11T09:51:33.149Z,1024.45
2016-10-11T09:56:33.087Z,1024.4
2016-10-11T10:01:33.032Z,1024.41
2016-10-11T10:06:32.978Z,1024.4
2016-10-11T10:11:32.917Z,1024.42
2016-10-11T10:16:32.863Z,1024.4
2016-10-11T10:21:32.805Z,1024.4
2016-10-11T10:26:32.751Z,1024.34
2016-10-11T10:31:32.694Z,1024.38
2016-10-11T10:36:32.638Z,1024.34
2016-10-11T10:41:32.584Z,1024.35
2016-10-11T10:46:32.529Z,1024.27
2016-10-11T10:51:32.484Z,1024.23
2016-10-11T10:56:32.420Z,1024.19
2016-10-11T11:01:32.365Z,1024.15
2016-10-11T11:06:32.309Z,1024.15
2016-10-11T11:11:32.256Z,1024.16
2016-10-11T11:16:32.199Z,1024.11
2016-10-11T11:21:32.149Z,1024.03
2016-10-11T11:26:32.091Z,1024.08
2016-10-11T11:31:32.035Z,1024.05
2016-10-11T11:36:31.981Z,1024.03
2016-10-11T11:41:31.927Z,1024.02
2016-10-11T11:46:31.873Z,1023.9
2016-10-11T11:51:31.820Z,1023.91
2016-10-11T11:56:31.768Z,1023.93
2016-10-11T12:01:31.711Z,1023.87
2016-10-11T12:06:31.657Z,1023.9
2016-10-11T12:11:31.603Z,1023.86
2016-10-11T12:16:31.551Z,1023.84
2016-10-11T12:21:31.497Z,1023.79
2016-10-11T12:26:31.441Z,1023.76
2016-10-11T12:31:31.387Z,1023.75
2016-10-11T12:36:31.332Z,1023.69
2016-10-11T12:41:31.279Z,1023.7
2016-10-11T12:46:31.222Z,1023.75
2016-10-11T12:51:31.165Z,1023.69
2016-10-11T12:56:31.114Z,1023.68
2016-10-11T13:01:31.053Z,1023.66
2016-10-11T13:06:30.999Z,1023.65
2016-10-11T13:11:30.943Z,1023.61
2016-10-11T13:16:30.886Z,1023.6
2016-10-11T13:21:30.836Z,1023.6
2016-10-11T13:26:30.776Z,1023.58
2016-10-11T13:31:30.722Z,1023.59
2016-10-11T13:36:30.666Z,1023.6
2016-10-11T13:41:30.608Z,1023.6
2016-10-11T13:46:30.551Z,1023.62
2016-10-11T13:51:30.496Z,1023.6
2016-10-11T13:56:30.448Z,1023.57
2016-10-11T14:01:30.386Z,1023.54
2016-10-11T14:06:30.329Z,1023.49
2016-10-11T14:11:30.275Z,1023.51
2016-10-11T14:16:30.221Z,1023.45
2016-10-11T14:21:30.171Z,1023.43
2016-10-11T14:26:30.124Z,1023.51
2016-10-11T14:31:30.069Z,1023.52
2016-10-11T14:36:30.017Z,1023.5
2016-10-11T14:41:29.962Z,1023.51
2016-10-11T14:46:29.904Z,1023.52
2016-10-11T14:51:29.850Z,1023.47
2016-10-11T14:56:29.799Z,1023.49
2016-10-11T15:01:29.744Z,1023.47
2016-10-11T15:06:29.688Z,1023.45
2016-10-11T15:11:29.638Z,1023.42
2016-10-11T15:16:29.584Z,1023.46
2016-10-11T15:21:29.534Z,1023.48
2016-10-11T15:26:29.488Z,1023.51
2016-10-11T15:31:29.427Z,1023.55
2016-10-11T15:36:29.375Z,1023.51
2016-10-11T15:41:29.321Z,1023.52
2016-10-11T15:46:29.267Z,1023.51
2016-10-11T15:51:29.215Z,1023.58
2016-10-11T15:56:29.161Z,1023.55
2016-10-11T16:01:29.106Z,1023.5
2016-10-11T16:06:29.053Z,1023.51
2016-10-11T16:11:29.012Z,1023.54
2016-10-11T16:16:28.949Z,1023.6
2016-10-11T16:21:28.901Z,1023.5
2016-10-11T16:26:28.846Z,1023.56
2016-10-11T16:31:28.797Z,1023.53
2016-10-11T16:36:28.746Z,1023.54
2016-10-11T16:41:28.693Z,1023.52
2016-10-11T16:46:28.648Z,1023.47
2016-10-11T16:51:28.596Z,1023.51
2016-10-11T16:56:28.545Z,1023.49
2016-10-11T17:01:28.497Z,1023.54
2016-10-11T17:06:28.451Z,1023.59
2016-10-11T17:11:28.400Z,1023.6
2016-10-11T17:16:28.352Z,1023.66
2016-10-11T17:21:28.304Z,1023.71
2016-10-11T17:26:28.252Z,1023.75
2016-10-11T17:31:28.210Z,1023.82
2016-10-11T17:36:28.151Z,1023.9
2016-10-11T17:41:28.103Z,1023.89
2016-10-11T17:46:28.048Z,1023.93
2016-10-11T17:51:27.996Z,1023.91
2016-10-11T17:56:27.947Z,1023.96
2016-10-11T18:01:27.898Z,1023.99
2016-10-11T18:06:27.846Z,1024.03
2016-10-11T18:11:27.799Z,1024.05
2016-10-11T18:16:27.750Z,1024.06
2016-10-11T18:21:27.703Z,1024.01
2016-10-11T18:26:27.657Z,1023.99
2016-10-11T18:31:27.608Z,1024.01
2016-10-11T18:36:27.558Z,1023.97
2016-10-11T18:41:27.511Z,1023.99
2016-10-11T18:46:27.461Z,1024.01
2016-10-11T18:51:27.413Z,1023.97
2016-10-11T18:56:27.365Z,1023.95
2016-10-11T19:01:27.319Z,1023.93
2016-10-11T19:06:27.267Z,1023.89
2016-10-11T19:11:27.221Z,1023.89
2016-10-11T19:16:27.171Z,1023.88
2016-10-11T19:21:27.125Z,1023.87
2016-10-11T19:26:27.072Z,1023.86
2016-10-11T19:31:27.027Z,1023.89
2016-10-11T19:36:26.979Z,1023.86
2016-10-11T19:41:26.928Z,1023.89
2016-10-11T19:46:26.879Z,1023.9
2016-10-11T19:51:26.829Z,1023.89
2016-10-11T19:56:26.783Z,1023.91
2016-10-11T20:01:26.734Z,1023.88
2016-10-11T20:06:26.687Z,1023.88
2016-10-11T20:11:26.640Z,1023.87
2016-10-11T20:16:26.591Z,1023.91
2016-10-11T20:21:26.544Z,1023.88
2016-10-11T20:26:26.504Z,1023.89
2016-10-11T20:31:26.454Z,1023.88
2016-10-11T20:36:26.406Z,1023.88
2016-10-11T20:41:26.363Z,1023.9
2016-10-11T20:46:26.317Z,1023.88
2016-10-11T20:51:26.271Z,1023.8
2016-10-11T20:56:26.225Z,1023.81
2016-10-11T21:01:26.178Z,1023.81
2016-10-11T21:06:26.130Z,1023.79
2016-10-11T21:11:26.083Z,1023.79
2016-10-11T21:16:26.037Z,1023.81
2016-10-11T21:21:25.991Z,1023.77
2016-10-11T21:26:25.941Z,1023.76
2016-10-11T21:31:25.892Z,1023.73
2016-10-11T21:36:25.844Z,1023.73
2016-10-11T21:41:25.798Z,1023.72
2016-10-11T21:46:25.751Z,1023.7
2016-10-11T21:51:25.700Z,1023.72
2016-10-11T21:56:25.652Z,1023.74
2016-10-11T22:01:25.601Z,1023.75
2016-10-11T22:06:25.554Z,1023.8
2016-10-11T22:11:25.503Z,1023.79
2016-10-11T22:16:25.459Z,1023.87
2016-10-11T22:21:25.403Z,1023.91
2016-10-11T22:26:25.353Z,1023.84
2016-10-11T22:31:25.311Z,1023.86
2016-10-11T22:36:25.248Z,1023.88
2016-10-11T22:41:25.199Z,1023.89
2016-10-11T22:46:25.145Z,1023.93
2016-10-11T22:51:25.092Z,1023.97
2016-10-11T22:56:25.040Z,1023.98
2016-10-11T23:01:24.991Z,1024.04
2016-10-11T23:06:24.936Z,1023.99
2016-10-11T23:11:24.885Z,1023.97
2016-10-11T23:16:24.833Z,1023.96
2016-10-11T23:21:24.781Z,1024.03
2016-10-11T23:26:24.729Z,1024.02
2016-10-11T23:31:24.677Z,1024.05
2016-10-11T23:36:24.625Z,1024.01
2016-10-11T23:41:24.572Z,1024
2016-10-11T23:46:24.519Z,1023.96
2016-10-11T23:51:24.466Z,1023.9
2016-10-11T23:56:24.409Z,1023.84
